Malmstrom A F B, Montana
Current Conditions -  °F | °C
As of 5:56 AM on Friday 19 Dec 2014 (Local Time) from KGFA Reporting Station
Clear Clear  
Wind Chill: 20°   Ceiling: Unl
Heat Index: 31°   Visibility: 10mi
Dew Point: 26°   Wind: 15mph
Humidity: 82%   Direction: 210°SSW
Pressure: 29.89"   Gusts: NA
Location:  47.5102°N, 111.1959°W
Report Text: KGFA 191256Z AUTO 21013KT 10SM CLR M01/M04 A2989 RMK AO2 SLP151 T10081036
Loading
Personal Weather Stations






























Interactive Weather Map New forecast layout! Learn more

10-Day Weather Forecast

Advertisements
Track Severe Weather on mobile